createdAt,value
2018-07-31T00:00:39.319Z,983.46
2018-07-31T00:01:39.273Z,983.43
2018-07-31T00:03:32.169Z,983.46
2018-07-31T00:04:32.021Z,983.41
2018-07-31T00:06:24.812Z,983.43
2018-07-31T00:07:24.766Z,983.41
2018-07-31T00:09:17.608Z,983.42
2018-07-31T00:10:17.513Z,983.40
2018-07-31T00:12:10.306Z,983.37
2018-07-31T00:13:10.258Z,983.39
2018-07-31T00:15:03.083Z,983.33
2018-07-31T00:16:03.006Z,983.35
2018-07-31T00:17:55.801Z,983.37
2018-07-31T00:18:55.753Z,983.33
2018-07-31T00:20:48.579Z,983.39
2018-07-31T00:21:48.503Z,983.35
2018-07-31T00:23:41.297Z,983.32
2018-07-31T00:24:41.250Z,983.36
2018-07-31T00:26:34.077Z,983.36
2018-07-31T00:27:33.999Z,983.37
2018-07-31T00:29:26.799Z,983.33
2018-07-31T00:30:26.750Z,983.36
2018-07-31T00:32:19.576Z,983.33
2018-07-31T00:33:19.500Z,983.36
2018-07-31T00:35:12.295Z,983.35
2018-07-31T00:36:12.248Z,983.38
2018-07-31T00:38:05.072Z,983.36
2018-07-31T00:39:04.994Z,983.41
2018-07-31T00:40:57.787Z,983.40
2018-07-31T00:41:57.741Z,983.40
2018-07-31T00:43:50.563Z,983.39
2018-07-31T00:44:50.486Z,983.38
2018-07-31T00:46:43.282Z,983.41
2018-07-31T00:47:43.235Z,983.37
2018-07-31T00:49:36.058Z,983.41
2018-07-31T00:50:35.982Z,983.40
2018-07-31T00:52:28.781Z,983.35
2018-07-31T00:53:28.730Z,983.32
2018-07-31T00:55:21.553Z,983.35
2018-07-31T00:56:21.477Z,983.34
2018-07-31T00:58:14.271Z,983.37
2018-07-31T00:59:14.224Z,983.36
2018-07-31T01:01:07.048Z,983.39
2018-07-31T01:02:06.971Z,983.36
2018-07-31T01:03:59.789Z,983.32
2018-07-31T01:04:59.718Z,983.35
2018-07-31T01:06:52.542Z,983.33
2018-07-31T01:07:52.463Z,983.31
2018-07-31T01:09:45.261Z,983.31
2018-07-31T01:10:45.211Z,983.30
2018-07-31T01:12:38.156Z,983.33
2018-07-31T01:13:37.960Z,983.30
2018-07-31T01:15:30.754Z,983.32
2018-07-31T01:16:30.708Z,983.31
2018-07-31T01:18:23.549Z,983.35
2018-07-31T01:19:23.457Z,983.33
2018-07-31T01:21:16.250Z,983.32
2018-07-31T01:22:16.203Z,983.31
2018-07-31T01:24:09.026Z,983.26
2018-07-31T01:25:08.952Z,983.29
2018-07-31T01:27:01.748Z,983.31
2018-07-31T01:28:01.699Z,983.31
2018-07-31T01:29:54.522Z,983.26
2018-07-31T01:30:54.446Z,983.23
2018-07-31T01:32:47.239Z,983.24
2018-07-31T01:33:47.191Z,983.25
2018-07-31T01:35:40.018Z,983.26
2018-07-31T01:36:39.940Z,983.25
2018-07-31T01:38:32.735Z,983.26
2018-07-31T01:39:32.689Z,983.32
2018-07-31T01:41:25.512Z,983.28
2018-07-31T01:42:25.436Z,983.31
2018-07-31T01:44:18.228Z,983.31
2018-07-31T01:45:18.184Z,983.25
2018-07-31T01:47:11.008Z,983.24
2018-07-31T01:48:10.956Z,983.25
2018-07-31T01:50:03.726Z,983.24
2018-07-31T01:51:03.680Z,983.21
2018-07-31T01:52:56.503Z,983.22
2018-07-31T01:53:56.429Z,983.18
2018-07-31T01:55:49.224Z,983.15
2018-07-31T01:56:49.178Z,983.13
2018-07-31T01:58:42.002Z,983.16
2018-07-31T01:59:41.944Z,983.18
2018-07-31T02:01:34.720Z,983.10
2018-07-31T02:02:34.676Z,983.11
2018-07-31T02:04:27.500Z,983.13
2018-07-31T02:05:27.422Z,983.09
2018-07-31T02:07:20.216Z,983.13
2018-07-31T02:08:20.169Z,983.13
2018-07-31T02:10:12.991Z,983.13
2018-07-31T02:11:12.914Z,983.11
2018-07-31T02:13:05.712Z,983.13
2018-07-31T02:14:05.668Z,983.10
2018-07-31T02:15:58.487Z,983.10
2018-07-31T02:16:58.409Z,983.14
2018-07-31T02:18:51.203Z,983.13
2018-07-31T02:19:51.157Z,983.10
2018-07-31T02:21:43.983Z,983.09
2018-07-31T02:22:43.906Z,983.12
2018-07-31T02:24:36.700Z,983.11
2018-07-31T02:25:36.655Z,983.08
2018-07-31T02:27:29.480Z,983.10
2018-07-31T02:28:29.435Z,983.10
2018-07-31T02:30:22.196Z,983.12
2018-07-31T02:31:22.149Z,983.13
2018-07-31T02:33:14.973Z,983.12
2018-07-31T02:34:14.894Z,983.12
2018-07-31T02:36:07.689Z,983.15
2018-07-31T02:37:07.645Z,983.13
2018-07-31T02:39:00.491Z,983.15
2018-07-31T02:40:00.390Z,983.14
2018-07-31T02:41:53.184Z,983.20
2018-07-31T02:42:53.139Z,983.16
2018-07-31T02:44:45.977Z,983.14
2018-07-31T02:45:45.884Z,983.16
2018-07-31T02:47:38.676Z,983.17
2018-07-31T02:48:38.631Z,983.15
2018-07-31T02:50:31.453Z,983.19
2018-07-31T02:51:31.375Z,983.19
2018-07-31T02:53:24.170Z,983.18
2018-07-31T02:54:24.123Z,983.16
2018-07-31T02:56:16.950Z,983.20
2018-07-31T02:57:16.873Z,983.22
2018-07-31T02:59:09.667Z,983.18
2018-07-31T03:00:09.623Z,983.21
2018-07-31T03:02:02.443Z,983.20
2018-07-31T03:03:02.367Z,983.19
2018-07-31T03:04:55.161Z,983.20
2018-07-31T03:05:55.115Z,983.20
2018-07-31T03:07:47.938Z,983.18
2018-07-31T03:08:47.866Z,983.18
2018-07-31T03:10:40.663Z,983.16
2018-07-31T03:11:40.612Z,983.22
2018-07-31T03:13:33.434Z,983.22
2018-07-31T03:14:33.359Z,983.24
2018-07-31T03:16:26.151Z,983.22
2018-07-31T03:17:26.104Z,983.29
2018-07-31T03:19:18.947Z,983.27
2018-07-31T03:20:18.852Z,983.27
2018-07-31T03:22:11.645Z,983.25
2018-07-31T03:23:11.601Z,983.33
2018-07-31T03:25:04.421Z,983.30
2018-07-31T03:26:04.342Z,983.30
2018-07-31T03:27:57.135Z,983.30
2018-07-31T03:28:57.090Z,983.29
2018-07-31T03:30:49.913Z,983.33
2018-07-31T03:31:49.846Z,983.31
2018-07-31T03:33:42.630Z,983.29
2018-07-31T03:34:42.582Z,983.26
2018-07-31T03:36:35.405Z,983.26
2018-07-31T03:37:35.330Z,983.28
2018-07-31T03:39:28.122Z,983.26
2018-07-31T03:40:28.076Z,983.27
2018-07-31T03:42:20.899Z,983.24
2018-07-31T03:43:20.823Z,983.23
2018-07-31T03:45:13.614Z,983.19
2018-07-31T03:46:13.570Z,983.24
2018-07-31T03:48:06.393Z,983.20
2018-07-31T03:49:06.316Z,983.20
2018-07-31T03:50:59.227Z,983.24
2018-07-31T03:51:59.064Z,983.27
2018-07-31T03:53:51.885Z,983.25
2018-07-31T03:54:51.809Z,983.25
2018-07-31T03:56:44.601Z,983.22
2018-07-31T03:57:44.554Z,983.25
2018-07-31T03:59:37.377Z,983.27
2018-07-31T04:00:37.298Z,983.28
2018-07-31T04:02:30.092Z,983.29
2018-07-31T04:03:30.047Z,983.27
2018-07-31T04:05:22.880Z,983.29
2018-07-31T04:06:22.795Z,983.29
2018-07-31T04:08:15.587Z,983.30
2018-07-31T04:09:15.540Z,983.28
2018-07-31T04:11:08.381Z,983.28
2018-07-31T04:12:08.290Z,983.30
2018-07-31T04:14:01.084Z,983.30
2018-07-31T04:15:01.033Z,983.32
2018-07-31T04:16:53.940Z,983.35
2018-07-31T04:17:53.780Z,983.38
2018-07-31T04:19:46.577Z,983.35
2018-07-31T04:20:46.530Z,983.38
2018-07-31T04:22:39.352Z,983.40
2018-07-31T04:23:39.275Z,983.40
2018-07-31T04:25:32.070Z,983.38
2018-07-31T04:26:32.022Z,983.38
2018-07-31T04:28:24.849Z,983.39
2018-07-31T04:29:24.772Z,983.41
2018-07-31T04:31:17.564Z,983.39
2018-07-31T04:32:17.521Z,983.39
2018-07-31T04:34:10.340Z,983.38
2018-07-31T04:35:10.262Z,983.36
2018-07-31T04:37:03.056Z,983.39
2018-07-31T04:38:03.011Z,983.35
2018-07-31T04:39:55.835Z,983.39
2018-07-31T04:40:55.758Z,983.38
2018-07-31T04:42:48.554Z,983.37
2018-07-31T04:43:48.510Z,983.42
2018-07-31T04:45:41.330Z,983.40
2018-07-31T04:46:41.253Z,983.42
2018-07-31T04:48:34.048Z,983.41
2018-07-31T04:49:34.000Z,983.42
2018-07-31T04:51:26.826Z,983.38
2018-07-31T04:52:26.753Z,983.40
2018-07-31T04:54:19.544Z,983.42
2018-07-31T04:55:19.499Z,983.41
2018-07-31T04:57:12.325Z,983.45
2018-07-31T04:58:12.251Z,983.44
2018-07-31T05:00:05.045Z,983.44
2018-07-31T05:01:04.999Z,983.48
2018-07-31T05:02:57.824Z,983.48
2018-07-31T05:03:57.746Z,983.46
2018-07-31T05:05:50.541Z,983.45
2018-07-31T05:06:50.494Z,983.48
2018-07-31T05:08:43.318Z,983.50
2018-07-31T05:09:43.240Z,983.53
2018-07-31T05:11:36.035Z,983.52
2018-07-31T05:12:35.989Z,983.53
2018-07-31T05:14:28.831Z,983.56
2018-07-31T05:15:28.737Z,983.53
2018-07-31T05:17:21.531Z,983.58
2018-07-31T05:18:21.562Z,983.59
2018-07-31T05:20:14.310Z,983.56
2018-07-31T05:21:14.232Z,983.57
2018-07-31T05:23:07.026Z,983.55
2018-07-31T05:24:06.980Z,983.53
2018-07-31T05:25:59.804Z,983.55
2018-07-31T05:26:59.727Z,983.60
2018-07-31T05:28:52.523Z,983.61
2018-07-31T05:29:52.472Z,983.60
2018-07-31T05:31:45.313Z,983.58
2018-07-31T05:32:45.280Z,983.60
2018-07-31T05:34:38.013Z,983.66
2018-07-31T05:35:37.967Z,983.65
2018-07-31T05:37:30.789Z,983.64
2018-07-31T05:38:30.713Z,983.65
2018-07-31T05:40:23.508Z,983.65
2018-07-31T05:41:23.461Z,983.64
2018-07-31T05:43:16.286Z,983.67
2018-07-31T05:44:16.208Z,983.64
2018-07-31T05:46:09.033Z,983.66
2018-07-31T05:47:08.952Z,983.68
2018-07-31T05:49:01.777Z,983.70
2018-07-31T05:50:01.700Z,983.69
2018-07-31T05:51:54.540Z,983.71
2018-07-31T05:52:54.447Z,983.72
2018-07-31T05:54:47.275Z,983.71
2018-07-31T05:55:47.194Z,983.71
2018-07-31T05:57:39.987Z,983.69
2018-07-31T05:58:39.942Z,983.67
2018-07-31T06:00:32.765Z,983.69
2018-07-31T06:01:32.691Z,983.65
2018-07-31T06:03:25.485Z,983.70
2018-07-31T06:04:25.454Z,983.69
2018-07-31T06:06:18.275Z,983.66
2018-07-31T06:07:18.186Z,983.69
2018-07-31T06:09:10.977Z,983.68
2018-07-31T06:10:10.930Z,983.67
2018-07-31T06:12:03.753Z,983.65
2018-07-31T06:13:03.679Z,983.68
2018-07-31T06:14:56.470Z,983.65
2018-07-31T06:15:56.423Z,983.64
2018-07-31T06:17:49.249Z,983.64
2018-07-31T06:18:49.174Z,983.67
2018-07-31T06:20:41.965Z,983.66
2018-07-31T06:21:41.919Z,983.67
2018-07-31T06:23:34.744Z,983.65
2018-07-31T06:24:34.667Z,983.72
2018-07-31T06:26:27.461Z,983.75
2018-07-31T06:27:27.415Z,983.71
2018-07-31T06:29:20.238Z,983.75
2018-07-31T06:30:20.162Z,983.70
2018-07-31T06:32:12.954Z,983.72
2018-07-31T06:33:12.911Z,983.72
2018-07-31T06:35:05.734Z,983.77
2018-07-31T06:36:05.657Z,983.77
2018-07-31T06:37:58.452Z,983.80
2018-07-31T06:38:58.404Z,983.81
2018-07-31T06:40:51.248Z,983.81
2018-07-31T06:41:51.154Z,983.81
2018-07-31T06:43:43.950Z,983.82
2018-07-31T06:44:43.903Z,983.84
2018-07-31T06:46:36.741Z,983.85
2018-07-31T06:47:36.645Z,983.85
2018-07-31T06:49:29.441Z,983.87
2018-07-31T06:50:29.395Z,983.88
2018-07-31T06:52:22.235Z,983.83
2018-07-31T06:53:22.142Z,983.85
2018-07-31T06:55:14.936Z,983.86
2018-07-31T06:56:14.890Z,983.84
2018-07-31T06:58:07.715Z,983.84
2018-07-31T06:59:07.639Z,983.84
2018-07-31T07:01:00.435Z,983.85
2018-07-31T07:02:00.452Z,983.86
2018-07-31T07:03:53.230Z,983.88
2018-07-31T07:04:53.134Z,983.85
2018-07-31T07:06:45.928Z,983.87
2018-07-31T07:07:45.882Z,983.88
2018-07-31T07:09:38.709Z,983.90
2018-07-31T07:10:38.628Z,983.89
2018-07-31T07:12:31.429Z,983.90
2018-07-31T07:13:31.382Z,983.92
2018-07-31T07:15:24.271Z,983.96
2018-07-31T07:16:24.131Z,983.92
2018-07-31T07:18:16.924Z,983.90
2018-07-31T07:19:16.878Z,983.92
2018-07-31T07:21:09.719Z,983.91
2018-07-31T07:22:09.627Z,983.92
2018-07-31T07:24:02.419Z,983.92
2018-07-31T07:25:02.373Z,983.97
2018-07-31T07:26:55.206Z,983.95
2018-07-31T07:27:55.156Z,983.94
2018-07-31T07:29:47.917Z,983.93
2018-07-31T07:30:47.870Z,983.94
2018-07-31T07:32:40.694Z,983.94
2018-07-31T07:33:40.674Z,983.91
2018-07-31T07:35:33.409Z,983.95
2018-07-31T07:36:33.362Z,983.99
2018-07-31T07:38:26.197Z,983.97
2018-07-31T07:39:26.112Z,983.95
2018-07-31T07:41:18.908Z,983.91
2018-07-31T07:42:18.860Z,983.94
2018-07-31T07:44:11.689Z,983.92
2018-07-31T07:45:11.609Z,983.95
2018-07-31T07:47:04.403Z,983.92
2018-07-31T07:48:04.356Z,983.89
2018-07-31T07:49:57.180Z,983.86
2018-07-31T07:50:57.103Z,983.91
2018-07-31T07:52:49.899Z,983.91
2018-07-31T07:53:49.879Z,983.91
2018-07-31T07:55:42.704Z,983.89
2018-07-31T07:56:42.597Z,983.91
2018-07-31T07:58:35.390Z,983.94
2018-07-31T07:59:35.343Z,983.96
2018-07-31T08:01:28.183Z,983.93
2018-07-31T08:02:28.088Z,983.96
2018-07-31T08:04:20.880Z,983.95
2018-07-31T08:05:20.839Z,983.95
2018-07-31T08:07:13.674Z,983.95
2018-07-31T08:08:13.578Z,983.97
2018-07-31T08:10:06.375Z,984.05
2018-07-31T08:11:06.329Z,984.07
2018-07-31T08:12:59.150Z,984.08
2018-07-31T08:13:59.073Z,984.12
2018-07-31T08:15:51.868Z,984.10
2018-07-31T08:16:51.821Z,984.12
2018-07-31T08:18:44.645Z,984.10
2018-07-31T08:19:44.570Z,984.09
2018-07-31T08:21:37.363Z,984.09
2018-07-31T08:22:37.327Z,984.11
2018-07-31T08:24:30.160Z,984.10
2018-07-31T08:25:30.094Z,984.10
2018-07-31T08:27:22.860Z,984.13
2018-07-31T08:28:22.809Z,984.08
2018-07-31T08:30:15.633Z,984.10
2018-07-31T08:31:15.557Z,984.10
2018-07-31T08:33:08.350Z,984.09
2018-07-31T08:34:08.307Z,984.07
2018-07-31T08:36:01.143Z,984.07
2018-07-31T08:37:01.049Z,984.06
2018-07-31T08:38:53.842Z,984.05
2018-07-31T08:39:53.797Z,984.04
2018-07-31T08:41:46.639Z,984.04
2018-07-31T08:42:46.547Z,984.04
2018-07-31T08:44:39.339Z,984.02
2018-07-31T08:45:39.295Z,984.03
2018-07-31T08:47:32.141Z,984.06
2018-07-31T08:48:32.039Z,984.02
2018-07-31T08:50:24.833Z,984.01
2018-07-31T08:51:24.787Z,984.05
2018-07-31T08:53:17.609Z,984.04
2018-07-31T08:54:17.532Z,984.02
2018-07-31T08:56:10.328Z,984.02
2018-07-31T08:57:10.282Z,983.97
2018-07-31T08:59:03.107Z,983.99
2018-07-31T09:00:03.029Z,983.97
2018-07-31T09:01:55.823Z,984.03
2018-07-31T09:02:55.778Z,984.00
2018-07-31T09:04:48.620Z,983.99
2018-07-31T09:05:48.525Z,983.98
2018-07-31T09:07:41.320Z,984.03
2018-07-31T09:08:41.348Z,984.02
2018-07-31T09:10:34.115Z,983.99
2018-07-31T09:11:34.022Z,984.01
2018-07-31T09:13:26.815Z,984.00
2018-07-31T09:14:26.769Z,984.04
2018-07-31T09:16:19.595Z,984.00
2018-07-31T09:17:19.518Z,984.01
2018-07-31T09:19:12.315Z,984.04
2018-07-31T09:20:12.265Z,984.03
2018-07-31T09:22:05.093Z,984.05
2018-07-31T09:23:05.014Z,984.09
2018-07-31T09:24:57.808Z,984.03
2018-07-31T09:25:57.762Z,984.05
2018-07-31T09:27:50.602Z,984.04
2018-07-31T09:28:50.510Z,984.08
2018-07-31T09:30:43.366Z,984.04
2018-07-31T09:31:43.260Z,984.02
2018-07-31T09:33:36.086Z,984.07
2018-07-31T09:34:36.008Z,984.05
2018-07-31T09:36:28.842Z,984.01
2018-07-31T09:37:28.756Z,984.04
2018-07-31T09:39:21.593Z,984.01
2018-07-31T09:40:21.499Z,984.06
2018-07-31T09:42:14.299Z,984.03
2018-07-31T09:43:14.253Z,984.02
2018-07-31T09:45:07.095Z,984.00
2018-07-31T09:46:07.001Z,984.02
2018-07-31T09:47:59.795Z,983.93
2018-07-31T09:48:59.749Z,983.94
2018-07-31T09:50:52.592Z,983.97
2018-07-31T09:51:52.500Z,983.94
2018-07-31T09:53:45.294Z,983.95
2018-07-31T09:54:45.250Z,984.00
2018-07-31T09:56:38.090Z,983.98
2018-07-31T09:57:37.995Z,984.00
2018-07-31T09:59:30.797Z,983.97
2018-07-31T10:00:30.750Z,983.91
2018-07-31T10:02:23.590Z,983.96
2018-07-31T10:03:23.496Z,983.97
2018-07-31T10:05:16.306Z,983.93
2018-07-31T10:06:16.245Z,983.89
2018-07-31T10:08:09.072Z,983.96
2018-07-31T10:09:09.000Z,983.97
2018-07-31T10:11:01.791Z,983.89
2018-07-31T10:12:01.761Z,983.90
2018-07-31T10:13:54.584Z,983.93
2018-07-31T10:14:54.488Z,983.88
2018-07-31T10:16:47.283Z,983.90
2018-07-31T10:17:47.258Z,983.89
2018-07-31T10:19:40.079Z,983.85
2018-07-31T10:20:39.987Z,983.90
2018-07-31T10:22:32.780Z,983.86
2018-07-31T10:23:32.734Z,983.84
2018-07-31T10:25:25.558Z,983.82
2018-07-31T10:26:25.482Z,983.82
2018-07-31T10:28:18.275Z,983.80
2018-07-31T10:29:18.230Z,983.78
2018-07-31T10:31:11.070Z,983.82
2018-07-31T10:32:10.978Z,983.79
2018-07-31T10:34:03.769Z,983.77
2018-07-31T10:35:03.721Z,983.81
2018-07-31T10:36:56.549Z,983.81
2018-07-31T10:37:56.555Z,983.79
2018-07-31T10:39:49.268Z,983.75
2018-07-31T10:40:49.222Z,983.76
2018-07-31T10:42:42.047Z,983.76
2018-07-31T10:43:42.025Z,983.78
2018-07-31T10:45:34.762Z,983.79
2018-07-31T10:46:34.715Z,983.78
2018-07-31T10:48:27.540Z,983.76
2018-07-31T10:49:27.463Z,983.76
2018-07-31T10:51:20.259Z,983.73
2018-07-31T10:52:20.224Z,983.76
2018-07-31T10:54:13.034Z,983.79
2018-07-31T10:55:12.961Z,983.73
2018-07-31T10:57:05.752Z,983.75
2018-07-31T10:58:05.771Z,983.74
2018-07-31T10:59:58.613Z,983.70
2018-07-31T11:00:58.453Z,983.72
2018-07-31T11:02:51.281Z,983.72
2018-07-31T11:03:51.233Z,983.75
2018-07-31T11:05:44.042Z,983.72
2018-07-31T11:06:43.950Z,983.73
2018-07-31T11:08:36.741Z,983.72
2018-07-31T11:09:36.694Z,983.72
2018-07-31T11:11:29.518Z,983.73
2018-07-31T11:12:29.442Z,983.74
2018-07-31T11:14:22.235Z,983.73
2018-07-31T11:15:22.190Z,983.69
2018-07-31T11:17:15.030Z,983.70
2018-07-31T11:18:14.935Z,983.71
2018-07-31T11:20:07.730Z,983.73
2018-07-31T11:21:07.788Z,983.71
2018-07-31T11:23:00.506Z,983.72
2018-07-31T11:24:00.430Z,983.66
2018-07-31T11:25:53.220Z,983.68
2018-07-31T11:26:53.173Z,983.66
2018-07-31T11:28:46.005Z,983.68
2018-07-31T11:29:45.923Z,983.67
2018-07-31T11:31:38.717Z,983.67
2018-07-31T11:32:38.671Z,983.64
2018-07-31T11:34:31.496Z,983.63
2018-07-31T11:35:31.421Z,983.63
2018-07-31T11:37:24.213Z,983.63
2018-07-31T11:38:24.205Z,983.60
2018-07-31T11:40:16.990Z,983.56
2018-07-31T11:41:16.912Z,983.61
2018-07-31T11:43:09.707Z,983.57
2018-07-31T11:44:09.660Z,983.56
2018-07-31T11:46:02.484Z,983.57
2018-07-31T11:47:02.412Z,983.55
2018-07-31T11:48:55.203Z,983.56
2018-07-31T11:49:55.225Z,983.54
2018-07-31T11:51:47.998Z,983.48
2018-07-31T11:52:47.905Z,983.50
2018-07-31T11:54:40.700Z,983.48
2018-07-31T11:55:40.659Z,983.53
2018-07-31T11:57:33.478Z,983.50
2018-07-31T11:58:33.398Z,983.46
2018-07-31T12:00:26.192Z,983.49
2018-07-31T12:01:26.145Z,983.49
2018-07-31T12:03:18.994Z,983.43
2018-07-31T12:04:18.963Z,983.47
2018-07-31T12:06:11.686Z,983.44
2018-07-31T12:07:11.638Z,983.44
2018-07-31T12:09:04.482Z,983.41
2018-07-31T12:10:04.387Z,983.40
2018-07-31T12:11:57.180Z,983.43
2018-07-31T12:12:57.135Z,983.36
2018-07-31T12:14:49.957Z,983.35
2018-07-31T12:15:49.879Z,983.35
2018-07-31T12:17:42.673Z,983.36
2018-07-31T12:18:42.627Z,983.33
2018-07-31T12:20:35.453Z,983.36
2018-07-31T12:21:35.375Z,983.34
2018-07-31T12:23:28.169Z,983.30
2018-07-31T12:24:28.126Z,983.35
2018-07-31T12:26:20.949Z,983.32
2018-07-31T12:27:20.874Z,983.31
2018-07-31T12:29:13.662Z,983.30
2018-07-31T12:30:13.615Z,983.31
2018-07-31T12:32:06.442Z,983.26
2018-07-31T12:33:06.370Z,983.29
2018-07-31T12:34:59.153Z,983.33
2018-07-31T12:35:59.107Z,983.32
2018-07-31T12:37:51.930Z,983.31
2018-07-31T12:38:51.854Z,983.31
2018-07-31T12:40:44.647Z,983.28
2018-07-31T12:41:44.601Z,983.27
2018-07-31T12:43:37.442Z,983.26
2018-07-31T12:44:37.353Z,983.26
2018-07-31T12:46:30.142Z,983.27
2018-07-31T12:47:30.096Z,983.24
2018-07-31T12:49:22.934Z,983.29
2018-07-31T12:50:22.842Z,983.26
2018-07-31T12:52:15.636Z,983.26
2018-07-31T12:53:15.589Z,983.24
2018-07-31T12:55:08.431Z,983.29
2018-07-31T12:56:08.334Z,983.30
2018-07-31T12:58:01.131Z,983.31
2018-07-31T12:59:01.086Z,983.26
2018-07-31T13:00:53.911Z,983.25
2018-07-31T13:01:53.834Z,983.30
2018-07-31T13:03:46.627Z,983.30
2018-07-31T13:04:46.578Z,983.25
2018-07-31T13:06:39.425Z,983.28
2018-07-31T13:07:39.330Z,983.28
2018-07-31T13:09:32.124Z,983.26
2018-07-31T13:10:32.078Z,983.19
2018-07-31T13:12:24.902Z,983.21
2018-07-31T13:13:24.833Z,983.19
2018-07-31T13:15:17.619Z,983.18
2018-07-31T13:16:17.576Z,983.23
2018-07-31T13:18:10.399Z,983.20
2018-07-31T13:19:10.322Z,983.20
2018-07-31T13:21:03.118Z,983.22
2018-07-31T13:22:03.071Z,983.21
2018-07-31T13:23:55.896Z,983.22
2018-07-31T13:24:55.819Z,983.17
2018-07-31T13:26:48.613Z,983.14
2018-07-31T13:27:48.609Z,983.13
2018-07-31T13:29:41.395Z,983.11
2018-07-31T13:30:41.369Z,983.14
2018-07-31T13:32:34.111Z,983.11
2018-07-31T13:33:34.063Z,983.11
2018-07-31T13:35:26.890Z,983.14
2018-07-31T13:36:26.814Z,983.07
2018-07-31T13:38:19.604Z,983.06
2018-07-31T13:39:19.559Z,983.09
2018-07-31T13:41:12.403Z,983.08
2018-07-31T13:42:12.332Z,983.09
2018-07-31T13:44:05.209Z,983.09
2018-07-31T13:45:05.058Z,983.10
2018-07-31T13:46:57.896Z,983.14
2018-07-31T13:47:57.805Z,983.16
2018-07-31T13:49:50.599Z,983.14
2018-07-31T13:50:50.552Z,983.10
2018-07-31T13:52:43.376Z,983.09
2018-07-31T13:53:43.297Z,983.12
2018-07-31T13:55:36.092Z,983.13
2018-07-31T13:56:36.045Z,983.09
2018-07-31T13:58:28.875Z,983.13
2018-07-31T13:59:28.793Z,983.14
2018-07-31T14:01:21.587Z,983.13
2018-07-31T14:02:21.541Z,983.18
2018-07-31T14:04:14.436Z,983.14
2018-07-31T14:05:14.291Z,983.19
2018-07-31T14:07:07.140Z,983.12
2018-07-31T14:08:07.039Z,983.13
2018-07-31T14:09:59.883Z,983.11
2018-07-31T14:10:59.783Z,983.13
2018-07-31T14:12:52.577Z,983.19
2018-07-31T14:13:52.595Z,983.14
2018-07-31T14:15:45.375Z,983.11
2018-07-31T14:16:45.280Z,983.13
2018-07-31T14:18:38.075Z,983.11
2018-07-31T14:19:38.029Z,983.12
2018-07-31T14:21:30.874Z,983.14
2018-07-31T14:22:30.779Z,983.15
2018-07-31T14:24:23.585Z,983.13
2018-07-31T14:25:23.524Z,983.17
2018-07-31T14:27:16.349Z,983.18
2018-07-31T14:28:16.272Z,983.15
2018-07-31T14:30:09.067Z,983.19
2018-07-31T14:31:09.022Z,983.19
2018-07-31T14:33:01.868Z,983.17
2018-07-31T14:34:01.770Z,983.17
2018-07-31T14:35:54.561Z,983.17
2018-07-31T14:36:54.515Z,983.27
2018-07-31T14:38:47.404Z,983.27
2018-07-31T14:39:47.261Z,983.22
2018-07-31T14:41:40.057Z,983.20
2018-07-31T14:42:40.011Z,983.19
2018-07-31T14:44:32.834Z,983.19
2018-07-31T14:45:32.756Z,983.21
2018-07-31T14:47:25.551Z,983.19
2018-07-31T14:48:25.550Z,983.17
2018-07-31T14:50:18.345Z,983.19
2018-07-31T14:51:18.252Z,983.22
2018-07-31T14:53:11.046Z,983.17
2018-07-31T14:54:11.050Z,983.23
2018-07-31T14:56:03.845Z,983.21
2018-07-31T14:57:03.747Z,983.22
2018-07-31T14:58:56.541Z,983.21
2018-07-31T14:59:56.503Z,983.23
2018-07-31T15:01:49.320Z,983.22
2018-07-31T15:02:49.245Z,983.27
2018-07-31T15:04:42.038Z,983.24
2018-07-31T15:05:41.993Z,983.22
2018-07-31T15:07:34.833Z,983.20
2018-07-31T15:08:34.743Z,983.21
2018-07-31T15:10:27.532Z,983.20
2018-07-31T15:11:27.489Z,983.24
2018-07-31T15:13:20.311Z,983.24
2018-07-31T15:14:20.234Z,983.22
2018-07-31T15:16:13.029Z,983.21
2018-07-31T15:17:12.983Z,983.21
2018-07-31T15:19:05.803Z,983.20
2018-07-31T15:20:05.728Z,983.17
2018-07-31T15:21:58.521Z,983.18
2018-07-31T15:22:58.474Z,983.18
2018-07-31T15:24:51.314Z,983.18
2018-07-31T15:25:51.218Z,983.16
2018-07-31T15:27:44.013Z,983.13
2018-07-31T15:28:43.968Z,983.15
2018-07-31T15:30:36.792Z,983.17
2018-07-31T15:31:36.716Z,983.12
2018-07-31T15:33:29.510Z,983.18
2018-07-31T15:34:29.463Z,983.17
2018-07-31T15:36:22.312Z,983.18
2018-07-31T15:37:22.219Z,983.17
2018-07-31T15:39:15.012Z,983.20
2018-07-31T15:40:14.965Z,983.20
2018-07-31T15:42:07.787Z,983.24
2018-07-31T15:43:07.710Z,983.21
2018-07-31T15:45:00.502Z,983.21
2018-07-31T15:46:00.455Z,983.21
2018-07-31T15:47:53.280Z,983.19
2018-07-31T15:48:53.201Z,983.22
2018-07-31T15:50:45.995Z,983.20
2018-07-31T15:51:45.968Z,983.19
2018-07-31T15:53:38.774Z,983.22
2018-07-31T15:54:38.698Z,983.21
2018-07-31T15:56:31.493Z,983.19
2018-07-31T15:57:31.447Z,983.20
2018-07-31T15:59:24.290Z,983.20
2018-07-31T16:00:24.210Z,983.14
2018-07-31T16:02:17.019Z,983.12
2018-07-31T16:03:17.029Z,983.19
2018-07-31T16:05:09.770Z,983.15
2018-07-31T16:06:09.695Z,983.17
2018-07-31T16:08:02.496Z,983.15
2018-07-31T16:09:02.447Z,983.16
2018-07-31T16:10:55.296Z,983.22
2018-07-31T16:11:55.198Z,983.12
2018-07-31T16:13:47.991Z,983.12
2018-07-31T16:14:48.021Z,983.14
2018-07-31T16:16:40.772Z,983.16
2018-07-31T16:17:40.695Z,983.11
2018-07-31T16:19:33.486Z,983.12
2018-07-31T16:20:33.439Z,983.09
2018-07-31T16:22:26.279Z,983.09
2018-07-31T16:23:26.185Z,983.07
2018-07-31T16:25:18.978Z,983.08
2018-07-31T16:26:18.933Z,983.13
2018-07-31T16:28:11.756Z,983.12
2018-07-31T16:29:11.681Z,983.11
2018-07-31T16:31:04.473Z,983.15
2018-07-31T16:32:04.428Z,983.12
2018-07-31T16:33:57.254Z,983.10
2018-07-31T16:34:57.175Z,983.13
2018-07-31T16:36:49.972Z,983.12
2018-07-31T16:37:49.925Z,983.13
2018-07-31T16:39:42.809Z,983.15
2018-07-31T16:40:42.674Z,983.14
2018-07-31T16:42:35.469Z,983.11
2018-07-31T16:43:35.422Z,983.12
2018-07-31T16:45:28.251Z,983.05
2018-07-31T16:46:28.172Z,983.08
2018-07-31T16:48:20.964Z,983.09
2018-07-31T16:49:20.916Z,983.08
2018-07-31T16:51:13.754Z,983.07
2018-07-31T16:52:14.315Z,983.08
2018-07-31T16:54:06.462Z,983.07
2018-07-31T16:55:06.416Z,983.07
2018-07-31T16:56:59.289Z,983.08
2018-07-31T16:57:59.164Z,983.10
2018-07-31T16:59:51.960Z,983.07
2018-07-31T17:00:51.912Z,983.05
2018-07-31T17:02:44.752Z,983.06
2018-07-31T17:03:44.657Z,983.06
2018-07-31T17:05:37.452Z,983.02
2018-07-31T17:06:37.407Z,983.06
2018-07-31T17:08:30.230Z,983.06
2018-07-31T17:09:30.154Z,983.06
2018-07-31T17:11:22.954Z,983.09
2018-07-31T17:12:22.905Z,983.11
2018-07-31T17:14:15.729Z,983.13
2018-07-31T17:15:15.651Z,983.13
2018-07-31T17:17:08.447Z,983.15
2018-07-31T17:18:08.401Z,983.14
2018-07-31T17:20:01.227Z,983.15
2018-07-31T17:21:01.151Z,983.14
2018-07-31T17:22:53.943Z,983.22
2018-07-31T17:23:53.896Z,983.19
2018-07-31T17:25:46.738Z,983.22
2018-07-31T17:26:46.645Z,983.25
2018-07-31T17:28:39.494Z,983.22
2018-07-31T17:29:39.390Z,983.25
2018-07-31T17:31:32.215Z,983.28
2018-07-31T17:32:32.140Z,983.27
2018-07-31T17:34:24.937Z,983.30
2018-07-31T17:35:24.896Z,983.30
2018-07-31T17:37:17.729Z,983.34
2018-07-31T17:38:17.637Z,983.35
2018-07-31T17:40:10.432Z,983.34
2018-07-31T17:41:10.385Z,983.37
2018-07-31T17:43:03.208Z,983.39
2018-07-31T17:44:03.134Z,983.37
2018-07-31T17:45:55.925Z,983.35
2018-07-31T17:46:55.880Z,983.42
2018-07-31T17:48:48.704Z,983.36
2018-07-31T17:49:48.628Z,983.36
2018-07-31T17:51:41.423Z,983.43
2018-07-31T17:52:41.426Z,983.45
2018-07-31T17:54:34.202Z,983.45
2018-07-31T17:55:34.124Z,983.49
2018-07-31T17:57:26.919Z,983.52